Time;durP1;ratioP1;P1;durP2;ratioP2;P2;SDS_P1;SDS_P2;PMS_P1;PMS_P2;Temp;Humidity;BMP_temperature;BMP_pressure;BME280_temperature;BME280_humidity;BME280_pressure;Samples;Min_cycle;Max_cycle;Signal;HPM_P1;HPM_P2
2021/12/29 00:00:14;;;;;;;2.80;0.70;;;;;;;14.72;82.06;100766.66;5050712;28;20080;-74
2021/12/29 00:02:42;;;;;;;5.38;0.93;;;;;;;14.53;81.86;100767.53;5050629;28;20120;-73
2021/12/29 00:05:11;;;;;;;3.72;0.90;;;;;;;14.40;82.08;100777.28;5053841;28;20064;-73
2021/12/29 00:07:39;;;;;;;5.65;0.85;;;;;;;14.36;82.56;100784.34;5069163;28;20390;-73
2021/12/29 00:10:08;;;;;;;4.68;0.95;;;;;;;14.36;82.57;100788.78;5062692;28;20052;-73
2021/12/29 00:12:41;;;;;;;2.38;0.30;;;;;;;14.30;82.18;100788.78;5050020;28;20118;-72
2021/12/29 00:15:09;;;;;;;2.42;0.35;;;;;;;14.19;82.49;100790.50;5050524;28;20052;-73
2021/12/29 00:17:39;;;;;;;3.90;0.40;;;;;;;14.16;82.60;100791.41;5053954;28;20090;-73
2021/12/29 00:20:08;;;;;;;3.08;0.38;;;;;;;14.16;82.29;100788.75;5068738;28;20044;-73
2021/12/29 00:22:35;;;;;;;3.10;0.40;;;;;;;14.18;82.23;100791.38;5070334;28;20040;-73
2021/12/29 00:25:05;;;;;;;3.83;0.63;;;;;;;14.17;82.37;100789.66;5066441;28;20037;-73
2021/12/29 00:27:32;;;;;;;5.82;0.52;;;;;;;14.17;82.33;100781.69;5050632;28;20069;-74
2021/12/29 00:30:02;;;;;;;3.35;0.60;;;;;;;14.21;82.26;100773.72;5068903;28;20055;-74
2021/12/29 00:32:50;;;;;;;4.00;0.32;;;;;;;14.20;82.50;100768.41;5010944;28;20044;-74
2021/12/29 00:35:41;;;;;;;6.55;0.88;;;;;;;14.25;82.75;100753.34;5050796;28;20065;-74
2021/12/29 00:38:35;;;;;;;4.85;0.77;;;;;;;14.21;82.94;100739.19;5048267;28;20052;-74
2021/12/29 00:41:21;;;;;;;2.55;0.75;;;;;;;14.24;82.92;100725.03;5064246;28;20178;-74
2021/12/29 00:44:00;;;;;;;3.92;0.57;;;;;;;14.18;83.45;100725.91;5064173;28;20430;-73
2021/12/29 00:46:43;;;;;;;2.75;0.43;;;;;;;14.18;83.36;100709.97;5062607;28;20037;-72
2021/12/29 00:49:10;;;;;;;3.33;0.32;;;;;;;14.10;83.62;100695.84;5068708;28;20041;-73
2021/12/29 00:51:38;;;;;;;3.55;0.40;;;;;;;13.95;83.98;100680.78;5069381;28;20040;-73
2021/12/29 00:54:06;;;;;;;1.55;0.20;;;;;;;13.85;84.41;100667.50;5068705;28;20072;-73
2021/12/29 00:56:33;;;;;;;4.13;0.43;;;;;;;13.79;84.52;100636.53;5067568;28;20041;-73
2021/12/29 00:59:01;;;;;;;3.55;0.40;;;;;;;13.72;84.70;100624.16;5067914;28;20048;-72
2021/12/29 01:01:29;;;;;;;3.70;0.60;;;;;;;13.65;84.84;100617.09;5051519;28;20041;-73
2021/12/29 01:03:58;;;;;;;4.93;0.77;;;;;;;13.62;84.80;100605.59;5068058;28;20037;-72
2021/12/29 01:06:26;;;;;;;3.47;0.30;;;;;;;13.55;84.95;100605.59;5067743;28;20585;-74
2021/12/29 01:08:53;;;;;;;1.23;0.30;;;;;;;13.55;85.20;100612.66;5067672;28;20048;-74
2021/12/29 01:11:22;;;;;;;6.32;0.77;;;;;;;13.52;85.23;100604.72;5054759;28;20072;-73
2021/12/29 01:13:50;;;;;;;4.05;0.60;;;;;;;13.47;85.19;100601.16;5047729;28;20041;-75
2021/12/29 01:19:03;;;;;;;5.25;0.60;;;;;;;13.49;84.44;100596.75;5062164;28;20051;-75
2021/12/29 01:21:33;;;;;;;5.38;0.38;;;;;;;13.53;84.15;100603.81;5069042;28;20064;-74
2021/12/29 01:24:01;;;;;;;0.65;0.20;;;;;;;13.56;83.58;100636.53;5068660;28;20048;-75
2021/12/29 01:26:29;;;;;;;1.80;0.63;;;;;;;13.64;83.14;100651.56;5068533;28;20040;-74
2021/12/29 01:28:57;;;;;;;11.95;7.82;;;;;;;13.65;82.65;100667.50;5067538;28;20052;-75
2021/12/29 01:31:25;;;;;;;6.38;3.10;;;;;;;13.70;82.82;100668.38;5068546;28;20037;-74
2021/12/29 01:33:53;;;;;;;6.53;3.20;;;;;;;13.76;82.88;100673.69;5064925;28;20489;-74
2021/12/29 01:36:22;;;;;;;14.50;8.05;;;;;;;13.75;82.89;100690.50;5055931;28;20063;-73
2021/12/29 01:38:50;;;;;;;14.32;5.88;;;;;;;13.77;82.99;100693.16;5047049;28;20128;-73
2021/12/29 01:41:18;;;;;;;18.30;13.38;;;;;;;13.84;82.94;100692.28;5053055;28;20045;-74
2021/12/29 01:43:45;;;;;;;3.90;1.00;;;;;;;13.86;82.85;100695.81;5045611;28;20061;-73
2021/12/29 01:46:13;;;;;;;6.20;1.38;;;;;;;13.91;82.74;100692.25;5047582;28;20045;-73
2021/12/29 01:48:41;;;;;;;3.33;0.50;;;;;;;14.00;82.79;100694.06;5033365;28;20426;-73
2021/12/29 01:51:08;;;;;;;2.85;0.32;;;;;;;14.02;82.75;100686.09;5051093;28;20416;-72
2021/12/29 01:53:46;;;;;;;4.60;0.70;;;;;;;14.06;82.67;100680.78;5050908;28;20045;-73
2021/12/29 01:56:14;;;;;;;2.45;0.45;;;;;;;14.06;82.61;100688.75;5064643;28;20087;-72
2021/12/29 01:58:42;;;;;;;3.13;0.57;;;;;;;14.06;82.59;100683.44;5049063;28;20069;-72
2021/12/29 02:01:10;;;;;;;2.15;0.40;;;;;;;14.07;82.70;100677.25;5047716;28;20045;-72
2021/12/29 02:03:37;;;;;;;0.65;0.20;;;;;;;14.09;82.44;100678.13;5049455;28;20045;-72
2021/12/29 02:06:05;;;;;;;2.63;0.63;;;;;;;14.14;82.56;100671.06;5050831;28;20738;-72
2021/12/29 02:08:35;;;;;;;3.13;0.40;;;;;;;14.19;82.87;100679.88;5050069;28;20036;-72
2021/12/29 02:11:07;;;;;;;1.92;0.50;;;;;;;14.25;82.59;100679.00;5056806;28;20041;-71
2021/12/29 02:13:35;;;;;;;5.15;1.08;;;;;;;14.23;82.44;100679.03;5066408;28;20048;-72
2021/12/29 02:16:02;;;;;;;6.55;0.57;;;;;;;14.25;82.67;100679.00;5072665;28;20044;-72
2021/12/29 02:18:31;;;;;;;1.27;0.30;;;;;;;14.27;82.52;100674.56;5071197;28;20045;-72
2021/12/29 02:21:00;;;;;;;2.28;0.60;;;;;;;14.26;82.52;100676.34;5059632;28;20044;-71
2021/12/29 02:23:33;;;;;;;2.25;0.68;;;;;;;14.24;82.43;100669.28;5047981;28;20041;-72
2021/12/29 02:26:01;;;;;;;4.80;0.80;;;;;;;14.22;82.83;100669.28;5070277;28;20064;-72
2021/12/29 02:28:34;;;;;;;3.03;0.45;;;;;;;14.21;83.06;100670.16;5071019;28;20396;-72
2021/12/29 02:31:03;;;;;;;2.22;0.50;;;;;;;14.19;83.09;100663.06;5070898;28;20058;-72
2021/12/29 02:33:31;;;;;;;1.27;0.30;;;;;;;14.19;83.31;100649.78;5067356;28;20694;-72
2021/12/29 02:36:02;;;;;;;3.33;0.55;;;;;;;14.19;83.34;100652.44;5055040;28;20405;-72
2021/12/29 02:38:31;;;;;;;8.52;0.95;;;;;;;14.16;83.70;100655.13;5061661;28;20049;-72
2021/12/29 02:41:02;;;;;;;4.25;0.35;;;;;;;14.13;83.72;100657.78;5066545;28;20048;-72
2021/12/29 02:43:32;;;;;;;0.30;0.20;;;;;;;14.12;83.88;100648.03;5065541;28;20496;-72
2021/12/29 02:46:00;;;;;;;1.17;0.30;;;;;;;14.15;83.91;100659.56;5052947;28;20044;-72
2021/12/29 02:48:30;;;;;;;4.70;0.40;;;;;;;14.12;83.81;100650.69;5072416;28;20092;-73
2021/12/29 02:51:00;;;;;;;1.05;0.28;;;;;;;14.13;83.90;100660.44;5063744;28;20045;-73
2021/12/29 02:53:30;;;;;;;4.25;0.65;;;;;;;14.15;83.62;100662.22;5068823;28;20047;-72
2021/12/29 02:55:58;;;;;;;0.98;0.20;;;;;;;14.17;83.26;100671.06;5057387;28;20416;-72
2021/12/29 02:58:26;;;;;;;3.80;0.50;;;;;;;14.16;83.23;100671.06;5048967;28;20143;-72
2021/12/29 03:00:57;;;;;;;3.10;0.30;;;;;;;14.17;83.15;100668.41;5062283;28;20049;-72
2021/12/29 03:03:27;;;;;;;2.47;0.77;;;;;;;14.19;83.41;100661.31;5071883;28;20399;-72
2021/12/29 03:05:55;;;;;;;2.28;0.30;;;;;;;14.20;83.38;100657.78;5065353;28;20048;-72
2021/12/29 03:08:26;;;;;;;5.93;0.30;;;;;;;14.21;83.28;100659.53;5071500;28;20119;-72
2021/12/29 03:10:55;;;;;;;6.40;0.50;;;;;;;14.17;83.11;100660.44;5066700;28;20493;-72
2021/12/29 03:13:24;;;;;;;2.72;0.43;;;;;;;14.16;83.17;100658.66;5069622;28;20052;-72
2021/12/29 03:15:52;;;;;;;4.40;0.50;;;;;;;14.15;83.24;100669.28;5069731;28;20111;-72
2021/12/29 03:18:21;;;;;;;9.88;0.75;;;;;;;14.12;83.23;100664.84;5041141;28;20118;-72
2021/12/29 03:20:49;;;;;;;1.05;0.45;;;;;;;14.10;83.34;100661.34;5052365;28;20532;-72
2021/12/29 03:23:18;;;;;;;5.45;0.73;;;;;;;14.04;83.56;100653.38;5049303;28;20132;-72
2021/12/29 03:25:48;;;;;;;0.98;0.40;;;;;;;13.99;83.42;100660.44;5044963;28;20067;-72
2021/12/29 03:28:17;;;;;;;4.30;0.40;;;;;;;13.92;83.42;100656.88;5031068;28;20053;-72
2021/12/29 03:30:48;;;;;;;7.35;0.60;;;;;;;13.91;83.77;100647.16;5055439;28;20366;-72
2021/12/29 03:33:16;;;;;;;2.17;0.90;;;;;;;13.86;83.37;100651.56;5057322;28;25404;-72
2021/12/29 03:35:45;;;;;;;6.70;2.70;;;;;;;13.84;83.32;100652.47;5049928;28;20045;-72
2021/12/29 03:38:15;;;;;;;5.28;2.60;;;;;;;13.81;83.33;100661.31;5052393;28;20700;-72
2021/12/29 03:40:46;;;;;;;4.13;0.70;;;;;;;13.79;83.30;100662.19;5066754;28;20043;-72
2021/12/29 03:43:15;;;;;;;2.03;0.35;;;;;;;13.76;83.27;100659.53;5051552;28;20408;-72
2021/12/29 03:45:45;;;;;;;2.47;0.40;;;;;;;13.72;83.33;100645.38;5062311;28;20095;-72
2021/12/29 03:48:15;;;;;;;2.00;0.52;;;;;;;13.68;83.44;100632.13;5051870;28;20084;-72
2021/12/29 03:50:44;;;;;;;1.40;0.30;;;;;;;13.61;83.68;100622.38;5068134;28;20448;-72
2021/12/29 03:53:13;;;;;;;0.82;0.30;;;;;;;13.54;83.76;100606.47;5066958;28;22041;-72
2021/12/29 03:55:42;;;;;;;2.78;0.28;;;;;;;13.46;83.77;100602.91;5050171;28;20511;-73
2021/12/29 03:58:10;;;;;;;1.35;0.32;;;;;;;13.41;84.20;100602.03;5068263;28;20107;-72
2021/12/29 04:00:40;;;;;;;0.45;0.20;;;;;;;13.41;84.54;100609.09;5062645;28;20112;-73
2021/12/29 04:03:07;;;;;;;1.17;0.30;;;;;;;13.42;84.86;100611.75;5052255;28;20048;-72
2021/12/29 04:05:36;;;;;;;2.05;0.40;;;;;;;13.46;85.01;100588.78;5063657;28;20123;-72
2021/12/29 04:08:05;;;;;;;1.45;0.30;;;;;;;13.49;84.97;100594.09;5052374;28;20464;-72
2021/12/29 04:10:33;;;;;;;1.13;0.05;;;;;;;13.51;85.02;100592.34;5050202;28;20041;-72
2021/12/29 04:13:02;;;;;;;1.00;0.30;;;;;;;13.51;84.90;100593.22;5055028;28;20571;-72
2021/12/29 04:15:30;;;;;;;1.55;0.40;;;;;;;13.50;84.69;100585.25;5054262;28;20374;-72
2021/12/29 04:18:03;;;;;;;1.50;0.20;;;;;;;13.51;84.55;100584.38;5059852;28;20056;-72
2021/12/29 04:23:17;;;;;;;1.83;0.57;;;;;;;13.47;84.15;100579.94;5066431;28;20055;-71
2021/12/29 04:25:49;;;;;;;3.10;0.40;;;;;;;13.47;84.07;100582.59;5050696;28;20061;-72
2021/12/29 04:28:20;;;;;;;2.97;0.70;;;;;;;13.46;84.15;100573.75;5051147;28;20052;-71
2021/12/29 04:30:48;;;;;;;3.03;0.50;;;;;;;13.49;83.97;100584.38;5052265;28;20033;-71
2021/12/29 04:33:18;;;;;;;1.27;0.30;;;;;;;13.52;84.08;100583.50;5083498;28;20135;-71
2021/12/29 04:35:47;;;;;;;3.28;0.50;;;;;;;13.52;84.19;100584.34;5051384;28;20076;-71
2021/12/29 04:38:18;;;;;;;1.70;0.50;;;;;;;13.51;84.31;100595.88;5048527;28;20072;-71
2021/12/29 04:40:46;;;;;;;4.18;0.45;;;;;;;13.51;84.29;100597.63;5059790;28;20415;-71
2021/12/29 04:43:13;;;;;;;1.35;0.38;;;;;;;13.52;84.45;100608.22;5066952;28;20037;-71
2021/12/29 04:45:41;;;;;;;1.45;0.50;;;;;;;13.56;84.58;100602.06;5058034;28;20041;-71
2021/12/29 04:48:13;;;;;;;3.30;0.50;;;;;;;13.57;84.67;100613.56;5067034;28;20465;-70
2021/12/29 04:50:49;;;;;;;3.70;0.52;;;;;;;13.63;84.70;100615.31;5064471;28;20087;-71
2021/12/29 04:53:18;;;;;;;1.48;0.40;;;;;;;13.60;84.72;100620.59;5049677;28;20049;-71
2021/12/29 04:55:49;;;;;;;2.83;0.60;;;;;;;13.59;84.82;100624.16;5058848;28;20570;-70
2021/12/29 04:58:20;;;;;;;3.20;0.52;;;;;;;13.60;84.87;100617.97;5040527;28;20052;-70
2021/12/29 05:00:50;;;;;;;1.75;0.40;;;;;;;13.59;85.11;100611.75;5043845;28;20118;-70
2021/12/29 05:03:18;;;;;;;1.73;0.30;;;;;;;13.56;85.02;100601.16;5049741;28;20069;-70
2021/12/29 05:05:57;;;;;;;2.30;0.47;;;;;;;13.58;85.02;100604.72;5058951;28;20037;-71
2021/12/29 05:08:29;;;;;;;2.03;0.35;;;;;;;13.56;85.18;100596.75;5069460;28;20036;-70
2021/12/29 05:10:59;;;;;;;3.05;0.50;;;;;;;13.60;85.26;100602.03;5068321;28;20040;-71
2021/12/29 05:13:27;;;;;;;1.45;0.35;;;;;;;13.64;85.40;100603.84;5067465;28;20040;-71
2021/12/29 05:15:56;;;;;;;2.25;0.50;;;;;;;13.63;85.38;100602.94;5075275;28;20037;-70
2021/12/29 05:18:25;;;;;;;4.68;0.60;;;;;;;13.64;85.41;100596.75;5076044;28;20124;-70
2021/12/29 05:20:55;;;;;;;1.42;0.40;;;;;;;13.64;85.53;100595.88;5047222;28;20095;-70
2021/12/29 05:23:24;;;;;;;6.32;0.70;;;;;;;13.64;85.87;100598.53;5050486;28;20065;-71
2021/12/29 05:25:52;;;;;;;6.82;1.25;;;;;;;13.68;86.01;100619.75;5042937;28;20037;-71
2021/12/29 05:28:20;;;;;;;24.00;16.73;;;;;;;13.78;86.29;100642.75;5048411;28;20401;-70
2021/12/29 05:30:49;;;;;;;17.70;10.15;;;;;;;13.93;86.10;100655.13;5048792;28;20128;-70
2021/12/29 05:33:17;;;;;;;6.18;2.30;;;;;;;13.90;85.74;100671.06;5048505;28;20063;-71
2021/12/29 05:35:45;;;;;;;4.53;0.80;;;;;;;13.79;85.30;100684.28;5047680;28;20044;-71
2021/12/29 05:38:14;;;;;;;3.30;1.08;;;;;;;13.70;85.13;100699.34;5081427;28;20063;-73
2021/12/29 05:40:42;;;;;;;1.83;0.90;;;;;;;13.54;85.07;100696.63;5046478;28;20132;-73
2021/12/29 05:43:09;;;;;;;0.95;0.40;;;;;;;13.40;84.95;100692.16;5061940;28;20033;-74
2021/12/29 05:45:38;;;;;;;1.70;0.70;;;;;;;13.36;84.92;100693.06;5035623;28;20577;-74
2021/12/29 05:48:06;;;;;;;3.35;0.60;;;;;;;13.33;84.99;100677.13;5077488;28;20662;-74
2021/12/29 05:50:34;;;;;;;3.63;0.93;;;;;;;13.23;84.86;100678.00;5053165;28;20485;-74
2021/12/29 05:53:03;;;;;;;1.42;0.32;;;;;;;13.16;84.97;100675.31;5046835;28;20045;-73
2021/12/29 05:55:32;;;;;;;3.67;0.60;;;;;;;13.12;84.96;100691.19;5040848;28;20160;-73
2021/12/29 05:57:59;;;;;;;2.10;0.43;;;;;;;13.11;84.98;100705.31;5044390;28;20045;-73
2021/12/29 06:00:29;;;;;;;4.25;0.80;;;;;;;13.09;85.09;100700.00;5047446;28;20068;-72
2021/12/29 06:02:57;;;;;;;2.88;1.10;;;;;;;13.11;85.13;100707.97;5048546;28;20056;-73
2021/12/29 06:05:25;;;;;;;3.70;0.70;;;;;;;13.14;84.86;100706.22;5041979;28;20065;-73
2021/12/29 06:07:53;;;;;;;3.60;0.60;;;;;;;13.08;84.58;100706.16;5066146;28;20067;-72
2021/12/29 06:10:20;;;;;;;4.35;0.93;;;;;;;13.07;84.59;100712.34;5040312;28;20451;-73
2021/12/29 06:12:49;;;;;;;4.22;0.85;;;;;;;13.12;84.66;100712.38;5044468;28;20044;-74
2021/12/29 06:15:17;;;;;;;4.57;0.70;;;;;;;13.11;84.45;100707.97;5033213;28;20127;-73
2021/12/29 06:17:45;;;;;;;3.88;0.50;;;;;;;13.09;84.45;100710.59;5029370;28;20033;-73
2021/12/29 06:20:14;;;;;;;5.90;0.98;;;;;;;13.12;84.42;100705.34;5031536;28;20097;-73
2021/12/29 06:22:43;;;;;;;4.88;1.10;;;;;;;13.08;84.35;100700.88;5031773;28;20040;-73
2021/12/29 06:25:14;;;;;;;5.72;1.10;;;;;;;13.09;84.43;100705.28;5066273;28;20045;-72
2021/12/29 06:27:42;;;;;;;4.07;1.00;;;;;;;13.12;84.49;100704.44;5030794;28;20064;-72
2021/12/29 06:30:14;;;;;;;4.70;1.20;;;;;;;13.11;84.52;100695.59;5027842;28;20080;-72
2021/12/29 06:32:42;;;;;;;5.60;1.27;;;;;;;13.08;84.59;100707.94;5047539;28;20041;-72
2021/12/29 06:35:11;;;;;;;3.33;0.90;;;;;;;13.03;84.74;100710.56;5047287;28;20099;-72
2021/12/29 06:37:39;;;;;;;4.43;1.10;;;;;;;12.98;85.02;100716.72;5045598;28;20058;-72
2021/12/29 06:40:09;;;;;;;7.18;1.30;;;;;;;12.98;85.01;100725.56;5047574;28;20041;-72
2021/12/29 06:42:38;;;;;;;6.93;1.17;;;;;;;12.96;85.01;100723.78;5045312;28;20045;-72
2021/12/29 06:45:06;;;;;;;4.35;1.13;;;;;;;12.94;85.03;100721.09;5028242;28;20053;-72
2021/12/29 06:47:36;;;;;;;3.08;0.95;;;;;;;12.91;85.19;100718.47;5029384;28;20042;-73
2021/12/29 06:50:05;;;;;;;5.35;1.48;;;;;;;12.86;85.58;100727.28;5039913;28;20045;-74
2021/12/29 06:52:33;;;;;;;6.63;1.15;;;;;;;12.94;85.74;100725.53;5074326;28;20037;-73
2021/12/29 06:55:01;;;;;;;7.15;1.58;;;;;;;12.99;85.79;100719.41;5049410;28;20042;-74
2021/12/29 06:57:29;;;;;;;5.80;1.10;;;;;;;13.01;85.72;100714.97;5048640;28;20049;-75
2021/12/29 06:59:57;;;;;;;15.30;8.15;;;;;;;13.05;85.71;100707.94;5033748;28;20487;-75
2021/12/29 07:02:25;;;;;;;13.45;6.85;;;;;;;13.05;85.61;100699.97;5045970;28;20041;-74
2021/12/29 07:04:54;;;;;;;18.63;9.15;;;;;;;12.96;85.59;100692.88;5065821;28;20141;-73
2021/12/29 07:07:22;;;;;;;6.82;2.72;;;;;;;12.88;85.63;100691.94;5069473;28;20056;-73
2021/12/29 07:09:50;;;;;;;7.35;3.05;;;;;;;12.84;85.62;100683.97;5071450;28;20059;-74
2021/12/29 07:12:19;;;;;;;4.70;2.17;;;;;;;12.84;85.58;100676.03;5056399;28;20106;-73
2021/12/29 07:14:47;;;;;;;6.50;3.20;;;;;;;12.82;85.69;100669.81;5050473;28;21124;-75
2021/12/29 07:17:15;;;;;;;8.77;2.80;;;;;;;12.81;85.74;100660.09;5071170;28;20037;-73
2021/12/29 07:19:43;;;;;;;8.77;3.38;;;;;;;12.80;85.70;100659.22;5050879;28;20556;-75
2021/12/29 07:22:12;;;;;;;10.50;4.10;;;;;;;12.78;85.51;100677.78;5030985;28;20037;-75
2021/12/29 07:24:40;;;;;;;43.67;28.73;;;;;;;12.72;85.35;100668.91;5048941;28;20091;-74
2021/12/29 07:27:08;;;;;;;185.32;138.43;;;;;;;12.72;85.69;100668.91;5070660;28;20075;-74
2021/12/29 07:29:37;;;;;;;139.60;106.15;;;;;;;12.70;85.88;100660.94;5058270;28;20041;-74
2021/12/29 07:32:05;;;;;;;63.70;44.33;;;;;;;12.69;85.88;100659.19;5051515;28;20037;-74
2021/12/29 07:34:33;;;;;;;22.35;13.60;;;;;;;12.64;86.00;100668.88;5050739;28;20448;-75
2021/12/29 07:37:01;;;;;;;10.98;6.35;;;;;;;12.67;85.97;100660.91;5041842;28;20513;-74
2021/12/29 07:39:31;;;;;;;5.28;2.20;;;;;;;12.64;85.89;100655.63;5047831;28;20061;-74
2021/12/29 07:41:58;;;;;;;6.43;1.80;;;;;;;12.62;85.94;100653.84;5047673;28;20489;-74
2021/12/29 07:44:31;;;;;;;2.28;1.02;;;;;;;12.60;85.78;100643.22;5049129;28;20040;-74
2021/12/29 07:46:59;;;;;;;4.72;1.70;;;;;;;12.56;85.81;100649.41;5049845;28;20049;-74
2021/12/29 07:49:27;;;;;;;4.15;2.10;;;;;;;12.58;85.96;100638.81;5067065;28;20098;-73
2021/12/29 07:51:56;;;;;;;3.80;1.48;;;;;;;12.54;85.89;100635.25;5043318;28;20532;-71
2021/12/29 07:54:23;;;;;;;4.95;1.98;;;;;;;12.54;86.00;100647.59;5035874;28;20048;-72
2021/12/29 07:56:53;;;;;;;2.17;0.98;;;;;;;12.64;86.19;100650.31;5050669;28;20057;-72
2021/12/29 07:59:21;;;;;;;2.72;1.60;;;;;;;12.72;86.17;100645.97;5046287;28;20519;-73
2021/12/29 08:01:50;;;;;;;4.75;2.78;;;;;;;12.83;86.13;100647.75;5047746;28;20045;-72
2021/12/29 08:04:19;;;;;;;9.93;4.07;;;;;;;12.92;85.97;100645.16;5068157;28;20067;-73
2021/12/29 08:06:47;;;;;;;6.03;3.20;;;;;;;13.03;85.91;100635.47;5065583;28;20082;-72
2021/12/29 08:09:15;;;;;;;2.13;0.77;;;;;;;13.07;85.43;100626.66;5039963;28;20581;-73
2021/12/29 08:11:43;;;;;;;1.00;0.50;;;;;;;13.12;84.83;100636.44;5035279;28;20061;-73
2021/12/29 08:14:12;;;;;;;4.07;0.80;;;;;;;13.22;84.81;100644.41;5032154;28;20079;-72
2021/12/29 08:16:40;;;;;;;2.17;1.05;;;;;;;13.31;84.96;100639.13;5047807;28;20047;-73
2021/12/29 08:19:08;;;;;;;6.95;2.58;;;;;;;13.41;84.80;100630.31;5083773;28;20079;-72
2021/12/29 08:21:36;;;;;;;4.25;2.20;;;;;;;13.50;84.68;100622.38;5085603;28;20036;-72
2021/12/29 08:24:05;;;;;;;9.80;3.00;;;;;;;13.57;84.60;100619.75;5067360;28;20049;-72
2021/12/29 08:26:32;;;;;;;8.35;4.20;;;;;;;13.65;84.55;100622.41;5068301;28;20081;-73
2021/12/29 08:29:01;;;;;;;7.35;3.80;;;;;;;13.68;84.33;100614.44;5063772;28;20444;-73
2021/12/29 08:31:30;;;;;;;11.20;7.00;;;;;;;13.74;84.53;100617.09;5066437;28;20063;-73
2021/12/29 08:33:58;;;;;;;9.15;5.88;;;;;;;13.72;84.49;100623.28;5077582;28;20131;-73
2021/12/29 08:36:26;;;;;;;9.18;5.13;;;;;;;13.72;84.56;100615.34;5083461;28;20049;-72
2021/12/29 08:38:54;;;;;;;8.05;3.78;;;;;;;13.65;84.73;100608.25;5057310;28;20128;-72
2021/12/29 08:41:22;;;;;;;7.18;2.33;;;;;;;13.64;84.84;100612.69;5030228;28;20041;-72
2021/12/29 08:43:50;;;;;;;5.72;2.33;;;;;;;13.61;85.05;100606.47;5043774;28;20033;-73
2021/12/29 08:46:19;;;;;;;6.55;2.97;;;;;;;13.57;85.16;100613.56;5057887;28;20520;-73
2021/12/29 08:48:48;;;;;;;4.68;2.53;;;;;;;13.58;85.41;100604.72;5035776;28;20045;-72
2021/12/29 08:51:17;;;;;;;4.88;1.90;;;;;;;13.53;85.52;100596.72;5035638;28;20132;-72
2021/12/29 08:53:45;;;;;;;3.05;0.75;;;;;;;13.53;85.14;100598.50;5047974;28;20497;-71
2021/12/29 08:56:14;;;;;;;0.93;0.55;;;;;;;13.53;84.76;100588.78;5041837;28;20455;-72
2021/12/29 08:58:42;;;;;;;2.90;0.73;;;;;;;13.54;83.63;100572.00;5047049;28;20041;-71
2021/12/29 09:01:10;;;;;;;4.70;1.13;;;;;;;13.54;82.62;100571.09;5065430;28;20573;-72
2021/12/29 09:03:38;;;;;;;4.07;0.98;;;;;;;13.57;81.53;100571.13;5082205;28;20047;-72
2021/12/29 09:06:09;;;;;;;1.83;0.55;;;;;;;13.64;80.94;100572.00;5077967;28;20036;-72
2021/12/29 09:08:37;;;;;;;3.20;0.70;;;;;;;13.73;80.69;100575.53;5087648;28;20040;-71
2021/12/29 09:11:05;;;;;;;1.05;0.50;;;;;;;13.85;80.14;100570.19;5080486;28;20124;-71
2021/12/29 09:13:33;;;;;;;1.75;0.63;;;;;;;13.98;79.59;100574.59;5088937;28;20055;-71
2021/12/29 09:16:01;;;;;;;4.60;0.50;;;;;;;14.16;79.65;100560.44;5070330;28;20052;-71
2021/12/29 09:18:31;;;;;;;0.70;0.40;;;;;;;14.41;79.16;100553.31;5070598;28;20040;-71
2021/12/29 09:21:05;;;;;;;4.28;0.68;;;;;;;14.70;78.96;100559.38;5061984;28;20132;-71
2021/12/29 09:23:36;;;;;;;3.90;0.70;;;;;;;15.07;78.84;100554.78;5068206;28;20075;-70
2021/12/29 09:26:05;;;;;;;1.77;0.43;;;;;;;15.35;78.25;100560.81;5067339;28;20056;-70
2021/12/29 09:28:32;;;;;;;2.05;0.50;;;;;;;15.62;77.58;100548.22;5066476;28;20159;-70
2021/12/29 09:31:00;;;;;;;2.97;0.60;;;;;;;15.99;77.71;100543.41;5068007;28;20044;-70
2021/12/29 09:33:28;;;;;;;3.42;0.45;;;;;;;16.15;76.01;100532.56;5071422;28;20037;-72
2021/12/29 09:36:01;;;;;;;0.93;0.47;;;;;;;16.35;75.70;100535.91;5066868;28;20040;-71
2021/12/29 09:38:28;;;;;;;3.15;0.50;;;;;;;16.55;75.26;100535.66;5050845;28;20052;-71
2021/12/29 09:40:58;;;;;;;1.35;0.43;;;;;;;16.68;74.67;100537.31;5047885;28;20050;-71
2021/12/29 09:43:26;;;;;;;2.05;0.85;;;;;;;16.84;74.85;100529.09;5032418;28;20077;-70
2021/12/29 09:45:54;;;;;;;2.55;0.60;;;;;;;16.89;73.13;100522.81;5031495;28;20053;-70
2021/12/29 09:48:23;;;;;;;5.72;0.82;;;;;;;16.95;72.38;100528.03;5026081;28;20037;-72
2021/12/29 09:50:52;;;;;;;6.88;2.33;;;;;;;16.99;72.49;100537.78;5039631;28;20566;-71
2021/12/29 09:53:21;;;;;;;6.25;1.30;;;;;;;17.16;72.50;100532.19;5043530;28;20049;-71
2021/12/29 09:55:49;;;;;;;2.72;1.30;;;;;;;17.28;71.80;100526.66;5047994;28;20116;-71
2021/12/29 09:58:19;;;;;;;1.88;0.93;;;;;;;17.14;70.69;100510.88;5047677;28;20568;-71
2021/12/29 10:00:50;;;;;;;1.95;0.98;;;;;;;17.16;71.11;100513.53;5073465;28;20075;-71
2021/12/29 10:03:21;;;;;;;4.15;1.17;;;;;;;17.16;71.07;100510.84;5036095;28;20629;-71
2021/12/29 10:05:50;;;;;;;3.20;0.85;;;;;;;17.22;71.30;100508.09;5028378;28;20493;-71
2021/12/29 10:08:20;;;;;;;4.25;1.27;;;;;;;17.38;71.03;100506.06;5051788;28;20068;-71
2021/12/29 10:10:51;;;;;;;3.05;0.90;;;;;;;17.43;70.47;100499.75;5073576;28;20195;-71
2021/12/29 10:13:21;;;;;;;4.35;1.35;;;;;;;17.52;70.74;100496.06;5061315;28;20045;-71
2021/12/29 10:15:54;;;;;;;7.30;1.40;;;;;;;17.57;69.38;100494.19;5045229;28;20053;-72
2021/12/29 10:18:24;;;;;;;4.90;1.02;;;;;;;17.61;69.95;100511.03;5047187;28;20041;-72
2021/12/29 10:20:54;;;;;;;2.92;0.70;;;;;;;17.66;69.73;100501.16;5046405;28;20037;-71
2021/12/29 10:23:25;;;;;;;8.13;1.55;;;;;;;17.74;69.67;100494.78;5065908;28;20033;-73
2021/12/29 10:25:54;;;;;;;6.10;1.20;;;;;;;17.88;69.13;100498.09;5033391;28;20038;-72
2021/12/29 10:28:26;;;;;;;7.57;1.60;;;;;;;17.74;69.07;100504.56;5027139;28;20565;-72
2021/12/29 10:31:05;;;;;;;6.75;1.27;;;;;;;17.71;69.12;100494.84;5057400;28;20043;-72
2021/12/29 10:33:36;;;;;;;7.32;1.73;;;;;;;17.75;69.27;100512.56;5062778;28;20060;-72
2021/12/29 10:36:25;;;;;;;6.72;1.80;;;;;;;17.79;68.98;100502.69;5068748;28;20051;-72
2021/12/29 10:39:03;;;;;;;9.15;1.40;;;;;;;17.86;69.37;100504.34;5078295;28;20098;-71
2021/12/29 10:41:33;;;;;;;6.65;1.05;;;;;;;18.03;69.42;100496.91;5049569;28;20041;-72
2021/12/29 10:44:05;;;;;;;5.82;1.40;;;;;;;18.12;69.18;100495.84;5037285;28;20050;-72
2021/12/29 10:46:33;;;;;;;5.03;1.20;;;;;;;17.97;68.74;100475.66;5071233;28;20041;-73
2021/12/29 10:49:03;;;;;;;12.07;1.90;;;;;;;17.69;68.67;100474.41;5049596;28;20052;-72
2021/12/29 10:51:34;;;;;;;10.70;2.33;;;;;;;17.79;69.16;100462.63;5049403;28;20037;-73
2021/12/29 10:54:08;;;;;;;8.15;1.35;;;;;;;17.89;68.66;100458.91;5066866;28;20052;-72
2021/12/29 10:56:38;;;;;;;5.47;1.30;;;;;;;17.91;68.40;100454.44;5051097;28;20068;-71
2021/12/29 10:59:20;;;;;;;8.73;1.35;;;;;;;17.97;68.28;100453.41;5039894;28;20052;-72
2021/12/29 11:01:49;;;;;;;4.57;1.02;;;;;;;17.88;68.38;100443.78;5082242;28;20574;-71
2021/12/29 11:04:18;;;;;;;7.05;1.55;;;;;;;17.85;68.79;100451.88;5034685;28;20044;-72
2021/12/29 11:06:47;;;;;;;6.10;1.65;;;;;;;17.84;68.64;100451.00;5047097;28;20060;-71
2021/12/29 11:09:16;;;;;;;12.13;3.13;;;;;;;17.88;68.45;100433.09;5045605;28;20497;-72
2021/12/29 11:11:47;;;;;;;7.72;1.90;;;;;;;17.94;68.67;100443.66;5048203;28;20048;-71
2021/12/29 11:14:18;;;;;;;7.78;2.13;;;;;;;18.00;68.71;100432.84;5049425;28;20044;-72
2021/12/29 11:16:47;;;;;;;9.63;1.80;;;;;;;18.08;68.54;100430.91;5070476;28;20708;-72
2021/12/29 11:19:18;;;;;;;7.30;2.50;;;;;;;18.15;68.30;100424.53;5070468;28;20505;-72
2021/12/29 11:21:46;;;;;;;10.07;4.88;;;;;;;18.15;67.86;100423.66;5058132;28;20041;-73
2021/12/29 11:24:16;;;;;;;7.88;1.95;;;;;;;18.11;67.56;100416.63;5032024;28;20041;-72
2021/12/29 11:26:45;;;;;;;8.23;2.75;;;;;;;18.09;67.96;100431.81;5031036;28;20054;-72
2021/12/29 11:29:14;;;;;;;8.50;4.32;;;;;;;18.15;68.05;100437.91;5051662;28;20036;-73
2021/12/29 11:31:46;;;;;;;7.05;2.38;;;;;;;18.21;67.71;100427.09;5049478;28;20033;-72
2021/12/29 11:34:20;;;;;;;6.32;1.52;;;;;;;18.19;66.56;100428.91;5049175;28;20120;-72
2021/12/29 11:37:03;;;;;;;5.80;1.70;;;;;;;18.12;65.64;100427.25;5047852;28;20048;-72
2021/12/29 11:39:31;;;;;;;7.50;1.80;;;;;;;18.15;65.96;100431.66;5090440;28;20129;-73